sensor_id;sensor_type;location;lat;lon;timestamp;P1;durP1;ratioP1;P2;durP2;ratioP2
51616;SDS011;37697;52.588;13.394;2022-12-07T00:01:41;9.05;;;6.08;;
51616;SDS011;37697;52.588;13.394;2022-12-07T00:06:45;9.55;;;6.03;;
51616;SDS011;37697;52.588;13.394;2022-12-07T00:11:49;11.00;;;7.10;;
51616;SDS011;37697;52.588;13.394;2022-12-07T00:16:51;10.72;;;6.90;;
51616;SDS011;37697;52.588;13.394;2022-12-07T00:21:52;9.57;;;6.77;;
51616;SDS011;37697;52.588;13.394;2022-12-07T00:26:53;10.47;;;7.00;;
51616;SDS011;37697;52.588;13.394;2022-12-07T00:31:53;10.65;;;7.12;;
51616;SDS011;37697;52.588;13.394;2022-12-07T00:36:54;10.60;;;7.60;;
51616;SDS011;37697;52.588;13.394;2022-12-07T00:41:55;10.10;;;6.30;;
51616;SDS011;37697;52.588;13.394;2022-12-07T00:46:56;9.43;;;7.00;;
51616;SDS011;37697;52.588;13.394;2022-12-07T00:51:56;11.70;;;7.28;;
51616;SDS011;37697;52.588;13.394;2022-12-07T00:56:57;10.55;;;6.80;;
51616;SDS011;37697;52.588;13.394;2022-12-07T01:01:58;9.90;;;6.60;;
51616;SDS011;37697;52.588;13.394;2022-12-07T01:06:59;10.43;;;7.13;;
51616;SDS011;37697;52.588;13.394;2022-12-07T01:11:59;11.00;;;6.95;;
51616;SDS011;37697;52.588;13.394;2022-12-07T01:17:00;9.83;;;6.73;;
51616;SDS011;37697;52.588;13.394;2022-12-07T01:22:00;9.85;;;6.42;;
51616;SDS011;37697;52.588;13.394;2022-12-07T01:27:01;8.78;;;6.08;;
51616;SDS011;37697;52.588;13.394;2022-12-07T01:32:02;10.43;;;6.87;;
51616;SDS011;37697;52.588;13.394;2022-12-07T01:37:02;11.50;;;6.47;;
51616;SDS011;37697;52.588;13.394;2022-12-07T01:42:03;9.20;;;6.33;;
51616;SDS011;37697;52.588;13.394;2022-12-07T01:47:04;8.40;;;6.08;;
51616;SDS011;37697;52.588;13.394;2022-12-07T01:52:20;7.07;;;4.70;;
51616;SDS011;37697;52.588;13.394;2022-12-07T01:57:23;8.08;;;6.37;;
51616;SDS011;37697;52.588;13.394;2022-12-07T02:02:26;9.27;;;6.00;;
51616;SDS011;37697;52.588;13.394;2022-12-07T02:07:34;9.35;;;6.05;;
51616;SDS011;37697;52.588;13.394;2022-12-07T02:12:38;7.87;;;5.47;;
51616;SDS011;37697;52.588;13.394;2022-12-07T02:23:17;8.53;;;5.80;;
51616;SDS011;37697;52.588;13.394;2022-12-07T02:34:33;10.10;;;6.12;;
51616;SDS011;37697;52.588;13.394;2022-12-07T02:39:49;8.20;;;5.40;;
51616;SDS011;37697;52.588;13.394;2022-12-07T02:45:00;7.78;;;4.83;;
51616;SDS011;37697;52.588;13.394;2022-12-07T02:50:03;7.37;;;4.80;;
51616;SDS011;37697;52.588;13.394;2022-12-07T02:55:06;8.43;;;5.42;;
51616;SDS011;37697;52.588;13.394;2022-12-07T03:10:54;8.33;;;5.37;;
51616;SDS011;37697;52.588;13.394;2022-12-07T03:21:16;9.78;;;5.67;;
51616;SDS011;37697;52.588;13.394;2022-12-07T03:26:21;12.33;;;8.00;;
51616;SDS011;37697;52.588;13.394;2022-12-07T03:31:41;11.43;;;7.33;;
51616;SDS011;37697;52.588;13.394;2022-12-07T03:36:47;13.68;;;8.45;;
51616;SDS011;37697;52.588;13.394;2022-12-07T03:41:55;14.70;;;8.70;;
51616;SDS011;37697;52.588;13.394;2022-12-07T03:52:33;16.05;;;9.28;;
51616;SDS011;37697;52.588;13.394;2022-12-07T03:57:49;15.20;;;10.03;;
51616;SDS011;37697;52.588;13.394;2022-12-07T04:02:55;13.85;;;8.80;;
51616;SDS011;37697;52.588;13.394;2022-12-07T04:07:56;15.30;;;9.65;;
51616;SDS011;37697;52.588;13.394;2022-12-07T04:12:57;16.07;;;9.93;;
51616;SDS011;37697;52.588;13.394;2022-12-07T04:17:58;19.98;;;11.00;;
51616;SDS011;37697;52.588;13.394;2022-12-07T04:22:58;13.48;;;8.05;;
51616;SDS011;37697;52.588;13.394;2022-12-07T04:27:59;13.65;;;8.58;;
51616;SDS011;37697;52.588;13.394;2022-12-07T04:33:00;18.37;;;11.07;;
51616;SDS011;37697;52.588;13.394;2022-12-07T04:38:00;16.40;;;9.83;;
51616;SDS011;37697;52.588;13.394;2022-12-07T04:43:01;19.40;;;12.20;;
51616;SDS011;37697;52.588;13.394;2022-12-07T04:48:02;18.75;;;12.28;;
51616;SDS011;37697;52.588;13.394;2022-12-07T04:53:02;17.20;;;11.30;;
51616;SDS011;37697;52.588;13.394;2022-12-07T04:58:03;17.05;;;10.10;;
51616;SDS011;37697;52.588;13.394;2022-12-07T05:03:04;21.15;;;13.53;;
51616;SDS011;37697;52.588;13.394;2022-12-07T05:08:04;21.13;;;13.60;;
51616;SDS011;37697;52.588;13.394;2022-12-07T05:13:05;20.95;;;14.18;;
51616;SDS011;37697;52.588;13.394;2022-12-07T05:18:06;20.13;;;13.07;;
51616;SDS011;37697;52.588;13.394;2022-12-07T05:23:07;24.07;;;15.77;;
51616;SDS011;37697;52.588;13.394;2022-12-07T05:28:08;23.43;;;14.67;;
51616;SDS011;37697;52.588;13.394;2022-12-07T05:33:09;24.80;;;15.03;;
51616;SDS011;37697;52.588;13.394;2022-12-07T05:38:09;25.80;;;15.63;;
51616;SDS011;37697;52.588;13.394;2022-12-07T05:43:10;23.90;;;16.07;;
51616;SDS011;37697;52.588;13.394;2022-12-07T05:48:11;24.60;;;14.83;;
51616;SDS011;37697;52.588;13.394;2022-12-07T05:53:12;28.47;;;17.15;;
51616;SDS011;37697;52.588;13.394;2022-12-07T05:58:12;25.57;;;16.53;;
51616;SDS011;37697;52.588;13.394;2022-12-07T06:03:32;22.93;;;14.25;;
51616;SDS011;37697;52.588;13.394;2022-12-07T06:08:32;18.83;;;13.03;;
51616;SDS011;37697;52.588;13.394;2022-12-07T06:13:34;20.47;;;12.23;;
51616;SDS011;37697;52.588;13.394;2022-12-07T06:18:34;23.77;;;15.23;;
51616;SDS011;37697;52.588;13.394;2022-12-07T06:23:35;23.67;;;13.17;;
51616;SDS011;37697;52.588;13.394;2022-12-07T06:28:36;22.80;;;14.67;;
51616;SDS011;37697;52.588;13.394;2022-12-07T06:33:36;24.15;;;15.40;;
51616;SDS011;37697;52.588;13.394;2022-12-07T06:38:37;20.77;;;12.45;;
51616;SDS011;37697;52.588;13.394;2022-12-07T06:43:38;25.50;;;15.17;;
51616;SDS011;37697;52.588;13.394;2022-12-07T06:48:39;25.15;;;15.38;;
51616;SDS011;37697;52.588;13.394;2022-12-07T06:53:41;22.50;;;14.47;;
51616;SDS011;37697;52.588;13.394;2022-12-07T06:58:41;21.80;;;11.00;;
51616;SDS011;37697;52.588;13.394;2022-12-07T07:03:43;21.10;;;12.87;;
51616;SDS011;37697;52.588;13.394;2022-12-07T07:08:45;22.98;;;13.75;;
51616;SDS011;37697;52.588;13.394;2022-12-07T07:13:46;19.05;;;12.20;;
51616;SDS011;37697;52.588;13.394;2022-12-07T07:18:47;27.10;;;14.37;;
51616;SDS011;37697;52.588;13.394;2022-12-07T07:23:48;22.73;;;13.18;;
51616;SDS011;37697;52.588;13.394;2022-12-07T07:28:49;19.35;;;12.50;;
51616;SDS011;37697;52.588;13.394;2022-12-07T07:33:50;21.53;;;12.27;;
51616;SDS011;37697;52.588;13.394;2022-12-07T07:38:50;23.60;;;14.18;;
51616;SDS011;37697;52.588;13.394;2022-12-07T07:43:51;21.75;;;12.15;;
51616;SDS011;37697;52.588;13.394;2022-12-07T07:48:52;16.23;;;10.87;;
51616;SDS011;37697;52.588;13.394;2022-12-07T07:53:53;16.20;;;9.40;;
51616;SDS011;37697;52.588;13.394;2022-12-07T07:58:54;12.00;;;7.50;;
51616;SDS011;37697;52.588;13.394;2022-12-07T08:03:55;15.60;;;8.27;;
51616;SDS011;37697;52.588;13.394;2022-12-07T08:08:56;11.83;;;7.27;;
51616;SDS011;37697;52.588;13.394;2022-12-07T08:18:58;9.65;;;6.30;;
51616;SDS011;37697;52.588;13.394;2022-12-07T08:23:59;9.53;;;5.93;;
51616;SDS011;37697;52.588;13.394;2022-12-07T08:29:00;8.55;;;5.12;;
51616;SDS011;37697;52.588;13.394;2022-12-07T08:34:00;7.83;;;4.55;;
51616;SDS011;37697;52.588;13.394;2022-12-07T08:39:01;6.55;;;4.45;;
51616;SDS011;37697;52.588;13.394;2022-12-07T08:44:02;6.67;;;4.60;;
51616;SDS011;37697;52.588;13.394;2022-12-07T08:54:14;5.55;;;4.10;;
51616;SDS011;37697;52.588;13.394;2022-12-07T08:59:17;6.87;;;4.30;;
51616;SDS011;37697;52.588;13.394;2022-12-07T09:04:19;6.47;;;3.80;;
51616;SDS011;37697;52.588;13.394;2022-12-07T09:09:20;6.25;;;3.42;;
51616;SDS011;37697;52.588;13.394;2022-12-07T09:14:21;6.95;;;3.42;;
51616;SDS011;37697;52.588;13.394;2022-12-07T09:19:22;5.07;;;2.90;;
51616;SDS011;37697;52.588;13.394;2022-12-07T09:24:23;4.03;;;2.25;;
51616;SDS011;37697;52.588;13.394;2022-12-07T09:29:24;2.77;;;1.70;;
51616;SDS011;37697;52.588;13.394;2022-12-07T09:34:25;2.70;;;1.30;;
51616;SDS011;37697;52.588;13.394;2022-12-07T09:39:26;3.72;;;2.17;;
51616;SDS011;37697;52.588;13.394;2022-12-07T09:44:27;3.37;;;1.93;;
51616;SDS011;37697;52.588;13.394;2022-12-07T09:59:37;3.00;;;2.00;;
51616;SDS011;37697;52.588;13.394;2022-12-07T10:04:40;3.17;;;1.87;;
51616;SDS011;37697;52.588;13.394;2022-12-07T10:09:44;3.55;;;1.87;;
51616;SDS011;37697;52.588;13.394;2022-12-07T10:15:01;2.90;;;1.82;;
51616;SDS011;37697;52.588;13.394;2022-12-07T10:25:22;3.55;;;1.92;;
51616;SDS011;37697;52.588;13.394;2022-12-07T10:30:26;3.87;;;1.70;;
51616;SDS011;37697;52.588;13.394;2022-12-07T10:35:28;2.83;;;1.60;;
51616;SDS011;37697;52.588;13.394;2022-12-07T10:40:35;3.58;;;1.82;;
51616;SDS011;37697;52.588;13.394;2022-12-07T10:45:41;3.17;;;1.70;;
51616;SDS011;37697;52.588;13.394;2022-12-07T10:50:54;3.17;;;1.65;;
51616;SDS011;37697;52.588;13.394;2022-12-07T10:56:19;3.60;;;2.00;;
51616;SDS011;37697;52.588;13.394;2022-12-07T11:07:34;4.25;;;2.83;;
51616;SDS011;37697;52.588;13.394;2022-12-07T11:18:22;3.90;;;2.60;;
51616;SDS011;37697;52.588;13.394;2022-12-07T11:23:46;3.52;;;2.22;;
51616;SDS011;37697;52.588;13.394;2022-12-07T11:34:41;4.58;;;2.35;;
51616;SDS011;37697;52.588;13.394;2022-12-07T11:45:20;4.78;;;2.58;;
51616;SDS011;37697;52.588;13.394;2022-12-07T11:50:32;4.03;;;2.40;;
51616;SDS011;37697;52.588;13.394;2022-12-07T11:55:48;6.17;;;2.60;;
51616;SDS011;37697;52.588;13.394;2022-12-07T12:01:22;3.98;;;2.37;;
51616;SDS011;37697;52.588;13.394;2022-12-07T12:06:43;5.55;;;2.80;;
51616;SDS011;37697;52.588;13.394;2022-12-07T12:11:54;4.47;;;2.40;;
51616;SDS011;37697;52.588;13.394;2022-12-07T12:22:43;7.42;;;2.50;;
51616;SDS011;37697;52.588;13.394;2022-12-07T12:27:47;8.93;;;3.40;;
51616;SDS011;37697;52.588;13.394;2022-12-07T12:32:51;7.75;;;2.77;;
51616;SDS011;37697;52.588;13.394;2022-12-07T12:37:52;5.50;;;2.95;;
51616;SDS011;37697;52.588;13.394;2022-12-07T12:42:55;4.12;;;2.12;;
51616;SDS011;37697;52.588;13.394;2022-12-07T12:48:04;4.83;;;2.12;;
51616;SDS011;37697;52.588;13.394;2022-12-07T12:53:26;8.08;;;2.40;;
51616;SDS011;37697;52.588;13.394;2022-12-07T12:58:29;5.00;;;2.00;;
51616;SDS011;37697;52.588;13.394;2022-12-07T13:03:36;7.50;;;2.15;;
51616;SDS011;37697;52.588;13.394;2022-12-07T13:08:37;4.28;;;1.80;;
51616;SDS011;37697;52.588;13.394;2022-12-07T13:13:41;4.47;;;1.87;;
51616;SDS011;37697;52.588;13.394;2022-12-07T13:18:42;10.18;;;2.22;;
51616;SDS011;37697;52.588;13.394;2022-12-07T13:28:51;4.22;;;1.72;;
51616;SDS011;37697;52.588;13.394;2022-12-07T13:39:44;4.45;;;1.45;;
51616;SDS011;37697;52.588;13.394;2022-12-07T13:44:47;4.17;;;2.20;;
51616;SDS011;37697;52.588;13.394;2022-12-07T13:49:49;5.92;;;1.65;;
51616;SDS011;37697;52.588;13.394;2022-12-07T13:54:57;5.12;;;1.62;;
51616;SDS011;37697;52.588;13.394;2022-12-07T14:00:41;4.37;;;1.25;;
51616;SDS011;37697;52.588;13.394;2022-12-07T14:05:24;5.58;;;1.50;;
51616;SDS011;37697;52.588;13.394;2022-12-07T14:10:37;5.42;;;1.50;;
51616;SDS011;37697;52.588;13.394;2022-12-07T14:15:51;6.12;;;1.45;;
51616;SDS011;37697;52.588;13.394;2022-12-07T14:21:02;5.22;;;1.75;;
51616;SDS011;37697;52.588;13.394;2022-12-07T14:26:19;4.05;;;1.30;;
51616;SDS011;37697;52.588;13.394;2022-12-07T14:36:24;3.05;;;1.50;;
51616;SDS011;37697;52.588;13.394;2022-12-07T14:41:24;8.48;;;1.80;;
51616;SDS011;37697;52.588;13.394;2022-12-07T14:46:44;6.17;;;1.60;;
51616;SDS011;37697;52.588;13.394;2022-12-07T14:51:45;4.97;;;1.80;;
51616;SDS011;37697;52.588;13.394;2022-12-07T14:56:47;6.15;;;2.30;;
51616;SDS011;37697;52.588;13.394;2022-12-07T15:01:50;7.30;;;3.90;;
51616;SDS011;37697;52.588;13.394;2022-12-07T15:06:58;8.57;;;3.80;;
51616;SDS011;37697;52.588;13.394;2022-12-07T15:11:58;7.17;;;2.98;;
51616;SDS011;37697;52.588;13.394;2022-12-07T15:16:59;6.53;;;3.20;;
51616;SDS011;37697;52.588;13.394;2022-12-07T15:21:59;6.30;;;2.67;;
51616;SDS011;37697;52.588;13.394;2022-12-07T15:27:00;5.40;;;2.08;;
51616;SDS011;37697;52.588;13.394;2022-12-07T15:32:01;6.45;;;2.22;;
51616;SDS011;37697;52.588;13.394;2022-12-07T15:37:02;3.83;;;1.67;;
51616;SDS011;37697;52.588;13.394;2022-12-07T15:42:03;5.53;;;1.53;;
51616;SDS011;37697;52.588;13.394;2022-12-07T15:47:04;7.62;;;3.35;;
51616;SDS011;37697;52.588;13.394;2022-12-07T15:52:06;8.50;;;2.35;;
51616;SDS011;37697;52.588;13.394;2022-12-07T15:57:06;4.63;;;1.50;;
51616;SDS011;37697;52.588;13.394;2022-12-07T16:02:08;2.63;;;0.93;;
51616;SDS011;37697;52.588;13.394;2022-12-07T16:07:10;3.23;;;1.43;;
51616;SDS011;37697;52.588;13.394;2022-12-07T16:12:12;5.87;;;2.58;;
51616;SDS011;37697;52.588;13.394;2022-12-07T16:17:14;9.37;;;2.37;;
51616;SDS011;37697;52.588;13.394;2022-12-07T16:22:14;4.37;;;1.70;;
51616;SDS011;37697;52.588;13.394;2022-12-07T16:27:15;5.17;;;1.47;;
51616;SDS011;37697;52.588;13.394;2022-12-07T16:32:16;7.90;;;1.73;;
51616;SDS011;37697;52.588;13.394;2022-12-07T16:37:17;4.90;;;1.80;;
51616;SDS011;37697;52.588;13.394;2022-12-07T16:42:17;6.53;;;1.93;;
51616;SDS011;37697;52.588;13.394;2022-12-07T16:47:18;6.22;;;1.80;;
51616;SDS011;37697;52.588;13.394;2022-12-07T16:52:19;5.70;;;1.80;;
51616;SDS011;37697;52.588;13.394;2022-12-07T16:57:20;4.17;;;1.80;;
51616;SDS011;37697;52.588;13.394;2022-12-07T17:02:21;5.93;;;1.50;;
51616;SDS011;37697;52.588;13.394;2022-12-07T17:07:22;7.30;;;1.50;;
51616;SDS011;37697;52.588;13.394;2022-12-07T17:12:23;6.87;;;2.03;;
51616;SDS011;37697;52.588;13.394;2022-12-07T17:17:23;5.30;;;1.90;;
51616;SDS011;37697;52.588;13.394;2022-12-07T17:22:24;6.20;;;1.97;;
51616;SDS011;37697;52.588;13.394;2022-12-07T17:27:24;5.10;;;2.12;;
51616;SDS011;37697;52.588;13.394;2022-12-07T17:32:25;5.17;;;1.90;;
51616;SDS011;37697;52.588;13.394;2022-12-07T17:37:26;5.47;;;2.05;;
51616;SDS011;37697;52.588;13.394;2022-12-07T17:42:27;8.07;;;1.90;;
51616;SDS011;37697;52.588;13.394;2022-12-07T17:47:37;7.85;;;2.52;;
51616;SDS011;37697;52.588;13.394;2022-12-07T17:52:38;7.58;;;2.25;;
51616;SDS011;37697;52.588;13.394;2022-12-07T17:57:58;3.83;;;1.60;;
51616;SDS011;37697;52.588;13.394;2022-12-07T18:02:59;11.47;;;2.83;;
51616;SDS011;37697;52.588;13.394;2022-12-07T18:08:00;5.37;;;1.90;;
51616;SDS011;37697;52.588;13.394;2022-12-07T18:13:00;8.67;;;2.17;;
51616;SDS011;37697;52.588;13.394;2022-12-07T18:18:20;5.55;;;1.90;;
51616;SDS011;37697;52.588;13.394;2022-12-07T18:23:20;7.60;;;2.62;;
51616;SDS011;37697;52.588;13.394;2022-12-07T18:28:21;8.17;;;2.33;;
51616;SDS011;37697;52.588;13.394;2022-12-07T18:33:22;8.85;;;2.80;;
51616;SDS011;37697;52.588;13.394;2022-12-07T18:38:23;6.33;;;3.37;;
51616;SDS011;37697;52.588;13.394;2022-12-07T18:43:24;6.08;;;2.80;;
51616;SDS011;37697;52.588;13.394;2022-12-07T18:48:24;6.95;;;2.60;;
51616;SDS011;37697;52.588;13.394;2022-12-07T18:53:26;5.20;;;2.20;;
51616;SDS011;37697;52.588;13.394;2022-12-07T18:58:27;5.97;;;2.03;;
51616;SDS011;37697;52.588;13.394;2022-12-07T19:03:28;6.10;;;2.10;;
51616;SDS011;37697;52.588;13.394;2022-12-07T19:08:32;8.35;;;2.25;;
51616;SDS011;37697;52.588;13.394;2022-12-07T19:13:34;7.00;;;2.50;;
51616;SDS011;37697;52.588;13.394;2022-12-07T19:18:35;5.67;;;1.90;;
51616;SDS011;37697;52.588;13.394;2022-12-07T19:23:37;5.87;;;2.50;;
51616;SDS011;37697;52.588;13.394;2022-12-07T19:28:38;6.35;;;2.52;;
51616;SDS011;37697;52.588;13.394;2022-12-07T19:33:39;6.77;;;2.37;;
51616;SDS011;37697;52.588;13.394;2022-12-07T19:38:41;5.40;;;2.40;;
51616;SDS011;37697;52.588;13.394;2022-12-07T19:43:42;5.33;;;2.47;;
51616;SDS011;37697;52.588;13.394;2022-12-07T19:48:43;6.03;;;2.60;;
51616;SDS011;37697;52.588;13.394;2022-12-07T19:53:44;6.10;;;2.40;;
51616;SDS011;37697;52.588;13.394;2022-12-07T19:58:45;4.20;;;2.20;;
51616;SDS011;37697;52.588;13.394;2022-12-07T20:03:47;5.87;;;2.63;;
51616;SDS011;37697;52.588;13.394;2022-12-07T20:08:49;5.47;;;3.05;;
51616;SDS011;37697;52.588;13.394;2022-12-07T20:13:50;6.28;;;2.80;;
51616;SDS011;37697;52.588;13.394;2022-12-07T20:18:52;8.35;;;3.17;;
51616;SDS011;37697;52.588;13.394;2022-12-07T20:23:53;5.47;;;3.17;;
51616;SDS011;37697;52.588;13.394;2022-12-07T20:28:55;7.37;;;2.60;;
51616;SDS011;37697;52.588;13.394;2022-12-07T20:33:56;8.05;;;3.62;;
51616;SDS011;37697;52.588;13.394;2022-12-07T20:38:59;8.15;;;3.25;;
51616;SDS011;37697;52.588;13.394;2022-12-07T20:44:01;11.12;;;3.80;;
51616;SDS011;37697;52.588;13.394;2022-12-07T20:49:02;6.83;;;3.20;;
51616;SDS011;37697;52.588;13.394;2022-12-07T20:54:04;7.12;;;2.55;;
51616;SDS011;37697;52.588;13.394;2022-12-07T20:59:06;7.25;;;3.60;;
51616;SDS011;37697;52.588;13.394;2022-12-07T21:04:11;6.45;;;3.65;;
51616;SDS011;37697;52.588;13.394;2022-12-07T21:09:13;6.50;;;4.47;;
51616;SDS011;37697;52.588;13.394;2022-12-07T21:14:14;7.72;;;3.83;;
51616;SDS011;37697;52.588;13.394;2022-12-07T21:19:14;8.70;;;3.53;;
51616;SDS011;37697;52.588;13.394;2022-12-07T21:24:15;7.90;;;4.30;;
51616;SDS011;37697;52.588;13.394;2022-12-07T21:29:16;8.23;;;3.73;;
51616;SDS011;37697;52.588;13.394;2022-12-07T21:34:17;10.97;;;3.93;;
51616;SDS011;37697;52.588;13.394;2022-12-07T21:39:17;6.70;;;3.75;;
51616;SDS011;37697;52.588;13.394;2022-12-07T21:44:18;9.43;;;4.53;;
51616;SDS011;37697;52.588;13.394;2022-12-07T21:49:19;8.58;;;4.15;;
51616;SDS011;37697;52.588;13.394;2022-12-07T21:54:19;8.37;;;4.50;;
51616;SDS011;37697;52.588;13.394;2022-12-07T21:59:20;8.13;;;4.07;;
51616;SDS011;37697;52.588;13.394;2022-12-07T22:04:22;6.10;;;3.30;;
51616;SDS011;37697;52.588;13.394;2022-12-07T22:09:25;8.10;;;4.17;;
51616;SDS011;37697;52.588;13.394;2022-12-07T22:14:27;7.23;;;4.07;;
51616;SDS011;37697;52.588;13.394;2022-12-07T22:19:47;9.33;;;4.35;;
51616;SDS011;37697;52.588;13.394;2022-12-07T22:24:47;6.73;;;4.03;;
51616;SDS011;37697;52.588;13.394;2022-12-07T22:29:49;9.57;;;4.57;;
51616;SDS011;37697;52.588;13.394;2022-12-07T22:34:50;7.25;;;4.47;;
51616;SDS011;37697;52.588;13.394;2022-12-07T22:39:51;9.13;;;5.43;;
51616;SDS011;37697;52.588;13.394;2022-12-07T22:44:52;9.10;;;4.90;;
51616;SDS011;37697;52.588;13.394;2022-12-07T22:49:52;9.00;;;4.83;;
51616;SDS011;37697;52.588;13.394;2022-12-07T22:59:55;9.33;;;5.77;;
51616;SDS011;37697;52.588;13.394;2022-12-07T23:04:56;11.60;;;5.67;;
51616;SDS011;37697;52.588;13.394;2022-12-07T23:09:56;9.60;;;5.25;;
51616;SDS011;37697;52.588;13.394;2022-12-07T23:14:57;8.97;;;4.90;;
51616;SDS011;37697;52.588;13.394;2022-12-07T23:19:58;7.77;;;4.90;;
51616;SDS011;37697;52.588;13.394;2022-12-07T23:24:58;12.17;;;6.80;;
51616;SDS011;37697;52.588;13.394;2022-12-07T23:29:59;8.67;;;5.30;;
51616;SDS011;37697;52.588;13.394;2022-12-07T23:35:00;10.43;;;5.33;;
51616;SDS011;37697;52.588;13.394;2022-12-07T23:40:01;9.57;;;5.43;;
51616;SDS011;37697;52.588;13.394;2022-12-07T23:45:02;8.07;;;4.63;;
51616;SDS011;37697;52.588;13.394;2022-12-07T23:55:06;10.13;;;5.40;;
